DLH25 EDDH-EDDF
Flight info
| Callsign | DLH25 |
|---|---|
| Flight time | N/A |
| Altitude | 34000 |
| Route | AMLUH2G AMLUH M852 DENIX DCT RIMET T157 KERAX KERAX5D |
| Aircraft | A320/M-SDE3FGHIRWY/LB1 |
Departure
| Time | 2026-04-26 17:07 |
|---|---|
| Airport | Hamburg Helmut Schmidt Airport (EDDH) |
Arrival
| Time | N/A |
|---|---|
| Airport | Frankfurt Main Airport (EDDF) |
| Time | Latitude | Longitude | Altitude | Speed | Heading |
|---|---|---|---|---|---|
| 2026-04-26 16:43 | 53.63106 | 9.99991 | 45 ft | 0 kts | 143° |
| 2026-04-26 17:00 | 53.63100 | 9.99994 | 45 ft | 4 kts | 163° |
| 2026-04-26 17:01 | 53.63101 | 9.99934 | 45 ft | 11 kts | 291° |
| 2026-04-26 17:01 | 53.63055 | 9.99907 | 45 ft | 9 kts | 159° |
| 2026-04-26 17:01 | 53.63006 | 9.99949 | 45 ft | 7 kts | 153° |
| 2026-04-26 17:01 | 53.62963 | 9.99985 | 44 ft | 6 kts | 153° |
| 2026-04-26 17:02 | 53.62926 | 9.99985 | 46 ft | 5 kts | 203° |
| 2026-04-26 17:02 | 53.62891 | 9.99894 | 44 ft | 13 kts | 243° |
| 2026-04-26 17:02 | 53.62874 | 9.99754 | 47 ft | 13 kts | 300° |
| 2026-04-26 17:02 | 53.62910 | 9.99708 | 47 ft | 0 kts | 332° |
| 2026-04-26 17:06 | 53.62976 | 9.99651 | 46 ft | 36 kts | 333° |
| 2026-04-26 17:06 | 53.63432 | 9.99251 | 46 ft | 107 kts | 333° |
| 2026-04-26 17:06 | 53.63962 | 9.98784 | 42 ft | 145 kts | 331° |
| 2026-04-26 17:07 | 53.64922 | 9.97986 | 482 ft | 160 kts | 333° |
| 2026-04-26 17:07 | 53.65933 | 9.97202 | 1365 ft | 160 kts | 334° |
| 2026-04-26 17:07 | 53.66968 | 9.96380 | 2029 ft | 172 kts | 332° |
| 2026-04-26 17:07 | 53.68091 | 9.95380 | 2388 ft | 196 kts | 332° |
| 2026-04-26 17:08 | 53.69450 | 9.94724 | 3019 ft | 210 kts | 354° |
| 2026-04-26 17:08 | 53.70940 | 9.94680 | 3795 ft | 218 kts | 357° |
| 2026-04-26 17:08 | 53.72456 | 9.95039 | 4621 ft | 225 kts | 24° |
| 2026-04-26 17:08 | 53.73612 | 9.96828 | 5412 ft | 233 kts | 62° |
| 2026-04-26 17:09 | 53.74027 | 9.99481 | 6223 ft | 237 kts | 80° |
| 2026-04-26 17:09 | 53.74141 | 10.01324 | 6777 ft | 241 kts | 88° |
| 2026-04-26 17:09 | 53.73707 | 10.05079 | 7623 ft | 260 kts | 113° |
| 2026-04-26 17:09 | 53.72802 | 10.07882 | 8041 ft | 284 kts | 119° |
| 2026-04-26 17:10 | 53.71797 | 10.10839 | 8745 ft | 295 kts | 118° |
| 2026-04-26 17:10 | 53.70768 | 10.13885 | 9575 ft | 302 kts | 118° |
| 2026-04-26 17:10 | 53.69639 | 10.16922 | 9908 ft | 307 kts | 127° |
| 2026-04-26 17:10 | 53.68112 | 10.19514 | 10004 ft | 326 kts | 142° |
| 2026-04-26 17:11 | 53.66079 | 10.21548 | 10011 ft | 350 kts | 158° |
| 2026-04-26 17:11 | 53.63732 | 10.22752 | 10008 ft | 354 kts | 166° |
| 2026-04-26 17:11 | 53.61410 | 10.23795 | 10002 ft | 341 kts | 166° |
| 2026-04-26 17:11 | 53.59182 | 10.24806 | 10120 ft | 321 kts | 166° |
| 2026-04-26 17:12 | 53.54743 | 10.26833 | 10875 ft | 351 kts | 166° |
| 2026-04-26 17:12 | 53.52348 | 10.27925 | 11487 ft | 361 kts | 166° |
| 2026-04-26 17:13 | 53.47464 | 10.30163 | 13014 ft | 370 kts | 166° |
| 2026-04-26 17:13 | 53.44933 | 10.31319 | 13794 ft | 374 kts | 167° |
| 2026-04-26 17:13 | 53.39871 | 10.33612 | 15189 ft | 382 kts | 167° |
| 2026-04-26 17:14 | 53.37291 | 10.34772 | 15872 ft | 385 kts | 167° |
| 2026-04-26 17:14 | 53.32058 | 10.37122 | 17212 ft | 393 kts | 168° |
| 2026-04-26 17:14 | 53.29404 | 10.38310 | 17882 ft | 396 kts | 168° |
| 2026-04-26 17:15 | 53.24043 | 10.40711 | 19122 ft | 402 kts | 168° |
| 2026-04-26 17:15 | 53.21357 | 10.41913 | 19693 ft | 406 kts | 168° |
| 2026-04-26 17:15 | 53.18609 | 10.43140 | 20276 ft | 409 kts | 168° |
| 2026-04-26 17:16 | 53.15846 | 10.44373 | 20853 ft | 413 kts | 168° |
| 2026-04-26 17:16 | 53.13023 | 10.45252 | 21426 ft | 412 kts | 178° |
| 2026-04-26 17:16 | 53.10151 | 10.45340 | 21997 ft | 411 kts | 188° |
| 2026-04-26 17:16 | 53.07280 | 10.44940 | 22554 ft | 414 kts | 189° |
| 2026-04-26 17:17 | 53.04395 | 10.44529 | 23108 ft | 417 kts | 189° |
| 2026-04-26 17:17 | 53.01491 | 10.44121 | 23643 ft | 420 kts | 189° |
| 2026-04-26 17:17 | 52.98586 | 10.43723 | 24108 ft | 423 kts | 189° |
| 2026-04-26 17:17 | 52.95633 | 10.43321 | 24534 ft | 427 kts | 189° |
| 2026-04-26 17:18 | 52.92660 | 10.42916 | 24948 ft | 429 kts | 189° |
| 2026-04-26 17:18 | 52.89669 | 10.42512 | 25355 ft | 432 kts | 189° |
| 2026-04-26 17:18 | 52.86651 | 10.42101 | 25749 ft | 435 kts | 189° |
| 2026-04-26 17:18 | 52.83664 | 10.41694 | 26135 ft | 437 kts | 189° |
| 2026-04-26 17:19 | 52.77546 | 10.40856 | 26893 ft | 442 kts | 189° |
| 2026-04-26 17:19 | 52.74470 | 10.40436 | 27280 ft | 445 kts | 188° |
| 2026-04-26 17:19 | 52.71373 | 10.40017 | 27646 ft | 447 kts | 188° |
| 2026-04-26 17:20 | 52.68292 | 10.39604 | 28010 ft | 450 kts | 188° |
| 2026-04-26 17:20 | 52.66171 | 10.39320 | 28250 ft | 451 kts | 188° |
| 2026-04-26 17:20 | 52.62011 | 10.38757 | 28718 ft | 454 kts | 188° |
| 2026-04-26 17:20 | 52.58852 | 10.38334 | 29054 ft | 457 kts | 188° |
| 2026-04-26 17:21 | 52.55676 | 10.37915 | 29378 ft | 459 kts | 188° |
| 2026-04-26 17:21 | 52.52485 | 10.37495 | 29671 ft | 461 kts | 188° |
| 2026-04-26 17:21 | 52.49266 | 10.37065 | 29976 ft | 463 kts | 188° |
| 2026-04-26 17:21 | 52.46038 | 10.36632 | 30273 ft | 466 kts | 188° |
| 2026-04-26 17:22 | 52.42800 | 10.36198 | 30531 ft | 468 kts | 188° |
| 2026-04-26 17:22 | 52.39546 | 10.35763 | 30774 ft | 469 kts | 188° |
| 2026-04-26 17:22 | 52.36321 | 10.35328 | 31009 ft | 471 kts | 188° |
| 2026-04-26 17:22 | 52.33049 | 10.34889 | 31265 ft | 471 kts | 188° |
| 2026-04-26 17:23 | 52.29785 | 10.34457 | 31576 ft | 470 kts | 188° |
| 2026-04-26 17:23 | 52.26536 | 10.34030 | 31910 ft | 468 kts | 188° |
| 2026-04-26 17:23 | 52.23292 | 10.33603 | 32244 ft | 467 kts | 188° |
| 2026-04-26 17:23 | 52.20049 | 10.33173 | 32565 ft | 466 kts | 188° |
| 2026-04-26 17:24 | 52.16820 | 10.32745 | 32889 ft | 465 kts | 188° |
| 2026-04-26 17:24 | 52.13596 | 10.32316 | 33214 ft | 464 kts | 188° |
| 2026-04-26 17:24 | 52.10376 | 10.31889 | 33540 ft | 463 kts | 188° |
| 2026-04-26 17:24 | 52.07171 | 10.31468 | 33853 ft | 462 kts | 188° |
| 2026-04-26 17:25 | 52.03968 | 10.31052 | 34171 ft | 461 kts | 188° |
| 2026-04-26 17:25 | 52.00767 | 10.30639 | 34279 ft | 459 kts | 188° |
| 2026-04-26 17:25 | 51.94455 | 10.29820 | 34290 ft | 456 kts | 188° |
| 2026-04-26 17:26 | 51.88125 | 10.28984 | 34290 ft | 455 kts | 188° |
| 2026-04-26 17:26 | 51.81815 | 10.28165 | 34280 ft | 454 kts | 188° |
| 2026-04-26 17:27 | 51.75531 | 10.27353 | 34288 ft | 455 kts | 188° |
| 2026-04-26 17:27 | 51.70280 | 10.26677 | 34286 ft | 455 kts | 188° |